sensor_id;sensor_type;location;lat;lon;timestamp;P1;durP1;ratioP1;P2;durP2;ratioP2
69837;SDS011;57135;51.992;4.476;2022-12-29T00:02:01;3.03;;;3.03;;
69837;SDS011;57135;51.992;4.476;2022-12-29T00:04:27;3.42;;;3.42;;
69837;SDS011;57135;51.992;4.476;2022-12-29T00:06:52;3.24;;;3.24;;
69837;SDS011;57135;51.992;4.476;2022-12-29T00:09:18;3.08;;;3.08;;
69837;SDS011;57135;51.992;4.476;2022-12-29T00:11:43;3.07;;;3.07;;
69837;SDS011;57135;51.992;4.476;2022-12-29T00:14:09;3.18;;;3.18;;
69837;SDS011;57135;51.992;4.476;2022-12-29T00:16:54;2.87;;;2.87;;
69837;SDS011;57135;51.992;4.476;2022-12-29T00:19:20;3.01;;;3.01;;
69837;SDS011;57135;51.992;4.476;2022-12-29T00:22:04;2.67;;;2.67;;
69837;SDS011;57135;51.992;4.476;2022-12-29T00:24:48;2.66;;;2.66;;
69837;SDS011;57135;51.992;4.476;2022-12-29T00:27:32;2.70;;;2.70;;
69837;SDS011;57135;51.992;4.476;2022-12-29T00:30:17;2.63;;;2.63;;
69837;SDS011;57135;51.992;4.476;2022-12-29T00:33:10;2.50;;;2.50;;
69837;SDS011;57135;51.992;4.476;2022-12-29T00:36:07;2.36;;;2.36;;
69837;SDS011;57135;51.992;4.476;2022-12-29T00:38:42;2.66;;;2.66;;
69837;SDS011;57135;51.992;4.476;2022-12-29T00:41:34;2.37;;;2.37;;
69837;SDS011;57135;51.992;4.476;2022-12-29T00:44:18;2.47;;;2.46;;
69837;SDS011;57135;51.992;4.476;2022-12-29T00:46:44;2.43;;;2.42;;
69837;SDS011;57135;51.992;4.476;2022-12-29T00:49:11;2.31;;;2.31;;
69837;SDS011;57135;51.992;4.476;2022-12-29T00:52:03;2.21;;;2.21;;
69837;SDS011;57135;51.992;4.476;2022-12-29T00:54:31;2.58;;;2.58;;
69837;SDS011;57135;51.992;4.476;2022-12-29T00:56:58;2.25;;;2.25;;
69837;SDS011;57135;51.992;4.476;2022-12-29T00:59:23;2.22;;;2.22;;
69837;SDS011;57135;51.992;4.476;2022-12-29T01:01:49;2.31;;;2.30;;
69837;SDS011;57135;51.992;4.476;2022-12-29T01:04:17;2.10;;;2.08;;
69837;SDS011;57135;51.992;4.476;2022-12-29T01:06:43;1.83;;;1.81;;
69837;SDS011;57135;51.992;4.476;2022-12-29T01:09:09;1.84;;;1.84;;
69837;SDS011;57135;51.992;4.476;2022-12-29T01:11:54;1.84;;;1.84;;
69837;SDS011;57135;51.992;4.476;2022-12-29T01:14:20;1.83;;;1.83;;
69837;SDS011;57135;51.992;4.476;2022-12-29T01:16:46;1.85;;;1.85;;
69837;SDS011;57135;51.992;4.476;2022-12-29T01:19:12;2.15;;;2.14;;
69837;SDS011;57135;51.992;4.476;2022-12-29T01:21:38;2.18;;;2.17;;
69837;SDS011;57135;51.992;4.476;2022-12-29T01:24:03;2.17;;;2.17;;
69837;SDS011;57135;51.992;4.476;2022-12-29T01:26:29;2.22;;;2.22;;
69837;SDS011;57135;51.992;4.476;2022-12-29T01:28:54;2.29;;;2.29;;
69837;SDS011;57135;51.992;4.476;2022-12-29T01:31:20;2.44;;;2.44;;
69837;SDS011;57135;51.992;4.476;2022-12-29T01:33:46;2.67;;;2.67;;
69837;SDS011;57135;51.992;4.476;2022-12-29T01:36:12;2.48;;;2.48;;
69837;SDS011;57135;51.992;4.476;2022-12-29T01:38:39;2.31;;;2.31;;
69837;SDS011;57135;51.992;4.476;2022-12-29T01:41:06;2.41;;;2.41;;
69837;SDS011;57135;51.992;4.476;2022-12-29T01:49:19;2.42;;;2.42;;
69837;SDS011;57135;51.992;4.476;2022-12-29T01:51:59;2.06;;;2.06;;
69837;SDS011;57135;51.992;4.476;2022-12-29T01:54:33;1.96;;;1.96;;
69837;SDS011;57135;51.992;4.476;2022-12-29T01:57:03;1.92;;;1.90;;
69837;SDS011;57135;51.992;4.476;2022-12-29T01:59:34;1.82;;;1.74;;
69837;SDS011;57135;51.992;4.476;2022-12-29T02:02:04;1.74;;;1.63;;
69837;SDS011;57135;51.992;4.476;2022-12-29T02:04:32;1.81;;;1.65;;
69837;SDS011;57135;51.992;4.476;2022-12-29T02:07:17;2.11;;;1.82;;
69837;SDS011;57135;51.992;4.476;2022-12-29T02:09:51;2.37;;;1.93;;
69837;SDS011;57135;51.992;4.476;2022-12-29T02:12:20;2.62;;;2.07;;
69837;SDS011;57135;51.992;4.476;2022-12-29T02:14:47;2.96;;;2.26;;
69837;SDS011;57135;51.992;4.476;2022-12-29T02:20:03;3.38;;;2.43;;
69837;SDS011;57135;51.992;4.476;2022-12-29T02:27:52;4.23;;;2.81;;
69837;SDS011;57135;51.992;4.476;2022-12-29T02:30:36;3.76;;;2.47;;
69837;SDS011;57135;51.992;4.476;2022-12-29T02:33:21;3.77;;;2.51;;
69837;SDS011;57135;51.992;4.476;2022-12-29T02:36:12;4.17;;;2.80;;
69837;SDS011;57135;51.992;4.476;2022-12-29T02:41:41;3.96;;;2.72;;
69837;SDS011;57135;51.992;4.476;2022-12-29T02:44:21;4.28;;;2.99;;
69837;SDS011;57135;51.992;4.476;2022-12-29T02:47:46;4.07;;;2.82;;
69837;SDS011;57135;51.992;4.476;2022-12-29T02:49:48;4.40;;;3.03;;
69837;SDS011;57135;51.992;4.476;2022-12-29T02:52:25;5.04;;;3.37;;
69837;SDS011;57135;51.992;4.476;2022-12-29T02:54:59;6.46;;;4.13;;
69837;SDS011;57135;51.992;4.476;2022-12-29T03:10:32;7.58;;;4.64;;
69837;SDS011;57135;51.992;4.476;2022-12-29T03:16:11;7.53;;;4.67;;
69837;SDS011;57135;51.992;4.476;2022-12-29T03:19:07;7.77;;;4.95;;
69837;SDS011;57135;51.992;4.476;2022-12-29T03:21:57;6.16;;;4.09;;
69837;SDS011;57135;51.992;4.476;2022-12-29T03:24:46;4.61;;;3.12;;
69837;SDS011;57135;51.992;4.476;2022-12-29T03:27:38;5.17;;;3.49;;
69837;SDS011;57135;51.992;4.476;2022-12-29T03:30:07;4.70;;;3.15;;
69837;SDS011;57135;51.992;4.476;2022-12-29T03:32:38;4.98;;;3.34;;
69837;SDS011;57135;51.992;4.476;2022-12-29T03:35:08;4.84;;;3.23;;
69837;SDS011;57135;51.992;4.476;2022-12-29T03:37:45;4.13;;;2.84;;
69837;SDS011;57135;51.992;4.476;2022-12-29T03:40:39;4.48;;;3.09;;
69837;SDS011;57135;51.992;4.476;2022-12-29T03:43:09;4.04;;;2.76;;
69837;SDS011;57135;51.992;4.476;2022-12-29T03:45:36;4.74;;;3.26;;
69837;SDS011;57135;51.992;4.476;2022-12-29T03:48:02;4.54;;;3.08;;
69837;SDS011;57135;51.992;4.476;2022-12-29T03:50:27;4.82;;;3.23;;
69837;SDS011;57135;51.992;4.476;2022-12-29T03:52:54;4.37;;;2.98;;
69837;SDS011;57135;51.992;4.476;2022-12-29T03:55:19;5.17;;;3.46;;
69837;SDS011;57135;51.992;4.476;2022-12-29T03:57:45;5.16;;;3.43;;
69837;SDS011;57135;51.992;4.476;2022-12-29T04:00:11;5.37;;;3.55;;
69837;SDS011;57135;51.992;4.476;2022-12-29T04:02:37;5.76;;;3.77;;
69837;SDS011;57135;51.992;4.476;2022-12-29T04:05:02;6.18;;;3.93;;
69837;SDS011;57135;51.992;4.476;2022-12-29T04:07:28;7.48;;;4.67;;
69837;SDS011;57135;51.992;4.476;2022-12-29T04:09:53;7.56;;;4.66;;
69837;SDS011;57135;51.992;4.476;2022-12-29T04:12:19;8.60;;;5.25;;
69837;SDS011;57135;51.992;4.476;2022-12-29T04:14:44;8.98;;;5.43;;
69837;SDS011;57135;51.992;4.476;2022-12-29T04:17:10;9.64;;;5.83;;
69837;SDS011;57135;51.992;4.476;2022-12-29T04:19:35;8.73;;;5.27;;
69837;SDS011;57135;51.992;4.476;2022-12-29T04:22:01;9.82;;;5.90;;
69837;SDS011;57135;51.992;4.476;2022-12-29T04:24:26;8.71;;;5.22;;
69837;SDS011;57135;51.992;4.476;2022-12-29T04:26:51;10.17;;;6.03;;
69837;SDS011;57135;51.992;4.476;2022-12-29T04:29:17;10.22;;;6.07;;
69837;SDS011;57135;51.992;4.476;2022-12-29T04:31:42;9.00;;;5.46;;
69837;SDS011;57135;51.992;4.476;2022-12-29T04:34:08;8.94;;;5.47;;
69837;SDS011;57135;51.992;4.476;2022-12-29T04:36:34;7.29;;;4.48;;
69837;SDS011;57135;51.992;4.476;2022-12-29T04:38:59;7.80;;;4.66;;
69837;SDS011;57135;51.992;4.476;2022-12-29T04:41:25;7.98;;;4.79;;
69837;SDS011;57135;51.992;4.476;2022-12-29T04:43:50;6.49;;;4.01;;
69837;SDS011;57135;51.992;4.476;2022-12-29T04:46:16;7.21;;;4.45;;
69837;SDS011;57135;51.992;4.476;2022-12-29T04:48:42;7.36;;;4.49;;
69837;SDS011;57135;51.992;4.476;2022-12-29T04:51:07;7.85;;;4.82;;
69837;SDS011;57135;51.992;4.476;2022-12-29T04:53:33;8.25;;;5.06;;
69837;SDS011;57135;51.992;4.476;2022-12-29T04:55:58;8.32;;;5.05;;
69837;SDS011;57135;51.992;4.476;2022-12-29T04:58:23;8.71;;;5.28;;
69837;SDS011;57135;51.992;4.476;2022-12-29T05:00:50;9.89;;;5.98;;
69837;SDS011;57135;51.992;4.476;2022-12-29T05:03:15;9.02;;;5.49;;
69837;SDS011;57135;51.992;4.476;2022-12-29T05:05:41;9.45;;;5.80;;
69837;SDS011;57135;51.992;4.476;2022-12-29T05:08:06;8.51;;;5.26;;
69837;SDS011;57135;51.992;4.476;2022-12-29T05:10:33;11.13;;;6.74;;
69837;SDS011;57135;51.992;4.476;2022-12-29T05:12:59;10.88;;;6.57;;
69837;SDS011;57135;51.992;4.476;2022-12-29T05:15:24;9.57;;;5.87;;
69837;SDS011;57135;51.992;4.476;2022-12-29T05:17:50;10.13;;;6.23;;
69837;SDS011;57135;51.992;4.476;2022-12-29T05:20:16;10.39;;;6.34;;
69837;SDS011;57135;51.992;4.476;2022-12-29T05:22:41;10.70;;;6.55;;
69837;SDS011;57135;51.992;4.476;2022-12-29T05:25:07;9.45;;;5.86;;
69837;SDS011;57135;51.992;4.476;2022-12-29T05:27:33;9.45;;;5.88;;
69837;SDS011;57135;51.992;4.476;2022-12-29T05:29:58;10.06;;;6.37;;
69837;SDS011;57135;51.992;4.476;2022-12-29T05:32:24;9.86;;;6.28;;
69837;SDS011;57135;51.992;4.476;2022-12-29T05:34:49;10.93;;;6.89;;
69837;SDS011;57135;51.992;4.476;2022-12-29T05:37:15;10.20;;;6.36;;
69837;SDS011;57135;51.992;4.476;2022-12-29T05:39:40;10.49;;;6.53;;
69837;SDS011;57135;51.992;4.476;2022-12-29T05:42:06;10.30;;;6.44;;
69837;SDS011;57135;51.992;4.476;2022-12-29T05:44:31;11.16;;;6.87;;
69837;SDS011;57135;51.992;4.476;2022-12-29T05:46:57;11.86;;;7.23;;
69837;SDS011;57135;51.992;4.476;2022-12-29T05:49:22;11.97;;;7.25;;
69837;SDS011;57135;51.992;4.476;2022-12-29T05:51:48;13.39;;;8.05;;
69837;SDS011;57135;51.992;4.476;2022-12-29T05:54:13;12.57;;;7.58;;
69837;SDS011;57135;51.992;4.476;2022-12-29T05:56:39;11.76;;;7.25;;
69837;SDS011;57135;51.992;4.476;2022-12-29T05:59:04;11.83;;;7.30;;
69837;SDS011;57135;51.992;4.476;2022-12-29T06:01:30;11.53;;;7.04;;
69837;SDS011;57135;51.992;4.476;2022-12-29T06:03:55;11.52;;;7.02;;
69837;SDS011;57135;51.992;4.476;2022-12-29T06:06:21;11.79;;;7.19;;
69837;SDS011;57135;51.992;4.476;2022-12-29T06:08:46;12.64;;;7.70;;
69837;SDS011;57135;51.992;4.476;2022-12-29T06:11:12;12.17;;;7.37;;
69837;SDS011;57135;51.992;4.476;2022-12-29T06:13:37;12.18;;;7.32;;
69837;SDS011;57135;51.992;4.476;2022-12-29T06:16:03;11.06;;;6.78;;
69837;SDS011;57135;51.992;4.476;2022-12-29T06:18:29;10.67;;;6.53;;
69837;SDS011;57135;51.992;4.476;2022-12-29T06:20:58;10.92;;;6.58;;
69837;SDS011;57135;51.992;4.476;2022-12-29T06:23:28;12.22;;;7.30;;
69837;SDS011;57135;51.992;4.476;2022-12-29T06:25:53;11.16;;;6.76;;
69837;SDS011;57135;51.992;4.476;2022-12-29T06:28:19;12.59;;;7.54;;
69837;SDS011;57135;51.992;4.476;2022-12-29T06:30:44;12.47;;;7.41;;
69837;SDS011;57135;51.992;4.476;2022-12-29T06:33:10;13.41;;;8.01;;
69837;SDS011;57135;51.992;4.476;2022-12-29T06:35:37;14.19;;;8.55;;
69837;SDS011;57135;51.992;4.476;2022-12-29T06:38:02;14.15;;;8.51;;
69837;SDS011;57135;51.992;4.476;2022-12-29T06:40:28;14.45;;;8.55;;
69837;SDS011;57135;51.992;4.476;2022-12-29T06:42:53;14.12;;;8.31;;
69837;SDS011;57135;51.992;4.476;2022-12-29T06:45:19;13.91;;;8.24;;
69837;SDS011;57135;51.992;4.476;2022-12-29T06:47:44;12.33;;;7.38;;
69837;SDS011;57135;51.992;4.476;2022-12-29T06:50:09;10.07;;;6.16;;
69837;SDS011;57135;51.992;4.476;2022-12-29T06:52:35;9.92;;;6.00;;
69837;SDS011;57135;51.992;4.476;2022-12-29T06:55:00;10.21;;;6.17;;
69837;SDS011;57135;51.992;4.476;2022-12-29T06:57:26;10.64;;;6.40;;
69837;SDS011;57135;51.992;4.476;2022-12-29T06:59:51;9.09;;;5.39;;
69837;SDS011;57135;51.992;4.476;2022-12-29T07:02:17;8.78;;;5.29;;
69837;SDS011;57135;51.992;4.476;2022-12-29T07:04:45;8.71;;;5.33;;
69837;SDS011;57135;51.992;4.476;2022-12-29T07:07:11;9.10;;;5.58;;
69837;SDS011;57135;51.992;4.476;2022-12-29T07:09:36;8.81;;;5.43;;
69837;SDS011;57135;51.992;4.476;2022-12-29T07:12:02;9.05;;;5.56;;
69837;SDS011;57135;51.992;4.476;2022-12-29T07:14:27;8.21;;;5.11;;
69837;SDS011;57135;51.992;4.476;2022-12-29T07:16:54;9.23;;;5.67;;
69837;SDS011;57135;51.992;4.476;2022-12-29T07:19:20;9.48;;;5.87;;
69837;SDS011;57135;51.992;4.476;2022-12-29T07:21:45;10.31;;;6.38;;
69837;SDS011;57135;51.992;4.476;2022-12-29T07:24:11;9.82;;;6.10;;
69837;SDS011;57135;51.992;4.476;2022-12-29T07:26:36;10.96;;;6.73;;
69837;SDS011;57135;51.992;4.476;2022-12-29T07:29:05;10.77;;;6.64;;
69837;SDS011;57135;51.992;4.476;2022-12-29T07:31:30;10.65;;;6.73;;
69837;SDS011;57135;51.992;4.476;2022-12-29T07:33:56;10.86;;;6.71;;
69837;SDS011;57135;51.992;4.476;2022-12-29T07:36:21;11.20;;;6.90;;
69837;SDS011;57135;51.992;4.476;2022-12-29T07:38:47;11.54;;;7.09;;
69837;SDS011;57135;51.992;4.476;2022-12-29T07:41:12;11.15;;;6.84;;
69837;SDS011;57135;51.992;4.476;2022-12-29T07:43:38;11.91;;;7.30;;
69837;SDS011;57135;51.992;4.476;2022-12-29T07:46:03;11.30;;;6.89;;
69837;SDS011;57135;51.992;4.476;2022-12-29T07:48:29;12.21;;;7.43;;
69837;SDS011;57135;51.992;4.476;2022-12-29T07:50:54;11.55;;;7.03;;
69837;SDS011;57135;51.992;4.476;2022-12-29T07:53:20;12.51;;;7.60;;
69837;SDS011;57135;51.992;4.476;2022-12-29T07:55:45;11.11;;;6.82;;
69837;SDS011;57135;51.992;4.476;2022-12-29T07:58:11;11.96;;;7.35;;
69837;SDS011;57135;51.992;4.476;2022-12-29T08:00:37;12.31;;;7.50;;
69837;SDS011;57135;51.992;4.476;2022-12-29T08:03:03;12.71;;;7.64;;
69837;SDS011;57135;51.992;4.476;2022-12-29T08:05:30;13.65;;;8.19;;
69837;SDS011;57135;51.992;4.476;2022-12-29T08:07:56;13.79;;;8.25;;
69837;SDS011;57135;51.992;4.476;2022-12-29T08:10:22;13.89;;;8.25;;
69837;SDS011;57135;51.992;4.476;2022-12-29T08:12:47;13.64;;;8.09;;
69837;SDS011;57135;51.992;4.476;2022-12-29T08:15:13;14.54;;;8.58;;
69837;SDS011;57135;51.992;4.476;2022-12-29T08:17:38;13.93;;;8.34;;
69837;SDS011;57135;51.992;4.476;2022-12-29T08:20:04;12.67;;;7.74;;
69837;SDS011;57135;51.992;4.476;2022-12-29T08:22:30;14.08;;;8.55;;
69837;SDS011;57135;51.992;4.476;2022-12-29T08:24:56;14.81;;;8.82;;
69837;SDS011;57135;51.992;4.476;2022-12-29T08:27:21;14.68;;;8.75;;
69837;SDS011;57135;51.992;4.476;2022-12-29T08:29:47;13.86;;;8.31;;
69837;SDS011;57135;51.992;4.476;2022-12-29T08:32:13;14.23;;;8.62;;
69837;SDS011;57135;51.992;4.476;2022-12-29T08:34:39;12.55;;;7.69;;
69837;SDS011;57135;51.992;4.476;2022-12-29T08:37:05;13.07;;;8.03;;
69837;SDS011;57135;51.992;4.476;2022-12-29T08:39:30;12.70;;;7.76;;
69837;SDS011;57135;51.992;4.476;2022-12-29T08:41:56;14.12;;;8.60;;
69837;SDS011;57135;51.992;4.476;2022-12-29T08:44:21;13.29;;;8.15;;
69837;SDS011;57135;51.992;4.476;2022-12-29T08:46:47;12.45;;;7.75;;
69837;SDS011;57135;51.992;4.476;2022-12-29T08:49:12;12.28;;;7.68;;
69837;SDS011;57135;51.992;4.476;2022-12-29T08:51:38;12.05;;;7.59;;
69837;SDS011;57135;51.992;4.476;2022-12-29T08:54:04;12.48;;;7.79;;
69837;SDS011;57135;51.992;4.476;2022-12-29T08:56:29;13.06;;;8.06;;
69837;SDS011;57135;51.992;4.476;2022-12-29T08:58:55;12.85;;;7.94;;
69837;SDS011;57135;51.992;4.476;2022-12-29T09:01:20;11.86;;;7.38;;
69837;SDS011;57135;51.992;4.476;2022-12-29T09:03:46;10.81;;;6.90;;
69837;SDS011;57135;51.992;4.476;2022-12-29T09:06:13;11.14;;;7.18;;
69837;SDS011;57135;51.992;4.476;2022-12-29T09:08:40;11.44;;;7.28;;
69837;SDS011;57135;51.992;4.476;2022-12-29T09:11:09;10.69;;;6.77;;
69837;SDS011;57135;51.992;4.476;2022-12-29T09:13:36;11.34;;;7.31;;
69837;SDS011;57135;51.992;4.476;2022-12-29T09:16:02;10.50;;;6.78;;
69837;SDS011;57135;51.992;4.476;2022-12-29T09:18:27;10.57;;;6.80;;
69837;SDS011;57135;51.992;4.476;2022-12-29T09:20:57;11.18;;;7.16;;
69837;SDS011;57135;51.992;4.476;2022-12-29T09:23:23;11.13;;;7.02;;
69837;SDS011;57135;51.992;4.476;2022-12-29T09:25:49;11.24;;;7.10;;
69837;SDS011;57135;51.992;4.476;2022-12-29T09:28:14;11.19;;;7.10;;
69837;SDS011;57135;51.992;4.476;2022-12-29T09:30:41;12.53;;;7.92;;
69837;SDS011;57135;51.992;4.476;2022-12-29T09:33:07;10.96;;;6.87;;
69837;SDS011;57135;51.992;4.476;2022-12-29T09:35:32;11.13;;;7.08;;
69837;SDS011;57135;51.992;4.476;2022-12-29T09:37:58;12.03;;;7.60;;
69837;SDS011;57135;51.992;4.476;2022-12-29T09:40:25;11.31;;;7.18;;
69837;SDS011;57135;51.992;4.476;2022-12-29T09:43:02;10.93;;;7.01;;
69837;SDS011;57135;51.992;4.476;2022-12-29T09:45:48;13.46;;;8.45;;
69837;SDS011;57135;51.992;4.476;2022-12-29T09:48:22;13.28;;;8.41;;
69837;SDS011;57135;51.992;4.476;2022-12-29T09:50:52;12.75;;;8.17;;
69837;SDS011;57135;51.992;4.476;2022-12-29T09:53:27;13.54;;;8.52;;
69837;SDS011;57135;51.992;4.476;2022-12-29T09:55:58;14.08;;;8.99;;
69837;SDS011;57135;51.992;4.476;2022-12-29T09:58:32;14.30;;;9.22;;
69837;SDS011;57135;51.992;4.476;2022-12-29T10:01:06;13.71;;;8.79;;
69837;SDS011;57135;51.992;4.476;2022-12-29T10:03:47;15.71;;;10.19;;
69837;SDS011;57135;51.992;4.476;2022-12-29T10:11:51;17.80;;;11.18;;
69837;SDS011;57135;51.992;4.476;2022-12-29T10:25:22;16.36;;;10.55;;
69837;SDS011;57135;51.992;4.476;2022-12-29T10:27:50;16.96;;;10.83;;
69837;SDS011;57135;51.992;4.476;2022-12-29T10:30:19;19.42;;;12.02;;
69837;SDS011;57135;51.992;4.476;2022-12-29T10:32:46;19.47;;;12.00;;
69837;SDS011;57135;51.992;4.476;2022-12-29T10:35:18;19.35;;;12.03;;
69837;SDS011;57135;51.992;4.476;2022-12-29T10:37:53;19.05;;;11.80;;
69837;SDS011;57135;51.992;4.476;2022-12-29T10:40:36;19.26;;;11.92;;
69837;SDS011;57135;51.992;4.476;2022-12-29T10:43:18;19.05;;;11.87;;
69837;SDS011;57135;51.992;4.476;2022-12-29T10:45:56;18.53;;;11.40;;
69837;SDS011;57135;51.992;4.476;2022-12-29T10:48:25;17.88;;;11.03;;
69837;SDS011;57135;51.992;4.476;2022-12-29T10:50:58;19.69;;;11.97;;
69837;SDS011;57135;51.992;4.476;2022-12-29T10:53:45;19.58;;;11.77;;
69837;SDS011;57135;51.992;4.476;2022-12-29T11:07:11;21.38;;;12.73;;
69837;SDS011;57135;51.992;4.476;2022-12-29T11:09:38;19.52;;;11.55;;
69837;SDS011;57135;51.992;4.476;2022-12-29T11:17:46;21.46;;;12.72;;
69837;SDS011;57135;51.992;4.476;2022-12-29T11:28:35;17.95;;;10.93;;
69837;SDS011;57135;51.992;4.476;2022-12-29T11:31:03;19.29;;;11.63;;
69837;SDS011;57135;51.992;4.476;2022-12-29T11:33:31;20.37;;;12.19;;
69837;SDS011;57135;51.992;4.476;2022-12-29T11:36:16;21.07;;;12.46;;
69837;SDS011;57135;51.992;4.476;2022-12-29T11:38:50;16.66;;;10.07;;
69837;SDS011;57135;51.992;4.476;2022-12-29T11:41:22;16.09;;;9.66;;
69837;SDS011;57135;51.992;4.476;2022-12-29T11:43:54;13.66;;;8.31;;
69837;SDS011;57135;51.992;4.476;2022-12-29T11:46:29;12.85;;;7.75;;
69837;SDS011;57135;51.992;4.476;2022-12-29T11:48:59;11.51;;;7.11;;
69837;SDS011;57135;51.992;4.476;2022-12-29T11:51:34;14.24;;;8.62;;
69837;SDS011;57135;51.992;4.476;2022-12-29T11:56:50;16.99;;;10.23;;
69837;SDS011;57135;51.992;4.476;2022-12-29T12:01:52;16.48;;;10.14;;
69837;SDS011;57135;51.992;4.476;2022-12-29T12:04:18;17.25;;;10.63;;
69837;SDS011;57135;51.992;4.476;2022-12-29T12:09:22;15.85;;;9.82;;
69837;SDS011;57135;51.992;4.476;2022-12-29T12:11:53;17.05;;;10.30;;
69837;SDS011;57135;51.992;4.476;2022-12-29T12:14:26;15.71;;;9.54;;
69837;SDS011;57135;51.992;4.476;2022-12-29T12:16:57;15.29;;;9.37;;
69837;SDS011;57135;51.992;4.476;2022-12-29T12:22:00;12.31;;;7.76;;
69837;SDS011;57135;51.992;4.476;2022-12-29T12:27:03;13.60;;;8.39;;
69837;SDS011;57135;51.992;4.476;2022-12-29T12:29:40;12.76;;;7.77;;
69837;SDS011;57135;51.992;4.476;2022-12-29T12:35:03;10.87;;;6.75;;
69837;SDS011;57135;51.992;4.476;2022-12-29T12:37:48;10.92;;;6.67;;
69837;SDS011;57135;51.992;4.476;2022-12-29T12:49:26;15.82;;;9.67;;
69837;SDS011;57135;51.992;4.476;2022-12-29T12:52:17;16.10;;;9.61;;
69837;SDS011;57135;51.992;4.476;2022-12-29T12:58:36;14.50;;;8.90;;
69837;SDS011;57135;51.992;4.476;2022-12-29T13:04:16;13.74;;;8.41;;
69837;SDS011;57135;51.992;4.476;2022-12-29T13:15:22;13.19;;;8.14;;
69837;SDS011;57135;51.992;4.476;2022-12-29T13:23:34;13.19;;;8.09;;
69837;SDS011;57135;51.992;4.476;2022-12-29T13:28:48;11.01;;;6.92;;
69837;SDS011;57135;51.992;4.476;2022-12-29T13:36:43;11.74;;;7.61;;
69837;SDS011;57135;51.992;4.476;2022-12-29T13:39:19;10.37;;;6.94;;
69837;SDS011;57135;51.992;4.476;2022-12-29T13:41:50;8.98;;;6.60;;
69837;SDS011;57135;51.992;4.476;2022-12-29T13:44:28;6.62;;;5.09;;
69837;SDS011;57135;51.992;4.476;2022-12-29T13:47:00;7.14;;;5.43;;
69837;SDS011;57135;51.992;4.476;2022-12-29T13:49:56;6.81;;;4.99;;
69837;SDS011;57135;51.992;4.476;2022-12-29T13:52:28;5.76;;;4.18;;
69837;SDS011;57135;51.992;4.476;2022-12-29T14:03:51;6.83;;;4.95;;
69837;SDS011;57135;51.992;4.476;2022-12-29T14:08:55;5.58;;;4.07;;
69837;SDS011;57135;51.992;4.476;2022-12-29T14:11:33;6.45;;;4.53;;
69837;SDS011;57135;51.992;4.476;2022-12-29T14:17:08;7.07;;;4.88;;
69837;SDS011;57135;51.992;4.476;2022-12-29T14:19:38;7.14;;;4.88;;
69837;SDS011;57135;51.992;4.476;2022-12-29T14:22:06;8.25;;;5.42;;
69837;SDS011;57135;51.992;4.476;2022-12-29T14:34:50;9.38;;;5.93;;
69837;SDS011;57135;51.992;4.476;2022-12-29T14:37:29;9.66;;;6.10;;
69837;SDS011;57135;51.992;4.476;2022-12-29T14:42:28;7.91;;;5.27;;
69837;SDS011;57135;51.992;4.476;2022-12-29T14:44:56;7.78;;;5.11;;
69837;SDS011;57135;51.992;4.476;2022-12-29T14:47:38;7.98;;;5.23;;
69837;SDS011;57135;51.992;4.476;2022-12-29T14:52:55;6.89;;;4.70;;
69837;SDS011;57135;51.992;4.476;2022-12-29T14:55:41;7.36;;;4.96;;
69837;SDS011;57135;51.992;4.476;2022-12-29T15:00:41;7.31;;;5.01;;
69837;SDS011;57135;51.992;4.476;2022-12-29T15:05:46;6.62;;;4.61;;
69837;SDS011;57135;51.992;4.476;2022-12-29T15:08:17;6.70;;;4.68;;
69837;SDS011;57135;51.992;4.476;2022-12-29T15:10:53;7.30;;;5.05;;
69837;SDS011;57135;51.992;4.476;2022-12-29T15:13:32;8.16;;;5.47;;
69837;SDS011;57135;51.992;4.476;2022-12-29T15:16:03;8.59;;;5.74;;
69837;SDS011;57135;51.992;4.476;2022-12-29T15:18:30;8.24;;;5.46;;
69837;SDS011;57135;51.992;4.476;2022-12-29T15:21:00;9.16;;;6.02;;
69837;SDS011;57135;51.992;4.476;2022-12-29T15:23:29;9.01;;;5.96;;
69837;SDS011;57135;51.992;4.476;2022-12-29T15:25:58;8.91;;;5.83;;
69837;SDS011;57135;51.992;4.476;2022-12-29T15:28:36;9.61;;;6.22;;
69837;SDS011;57135;51.992;4.476;2022-12-29T15:31:05;10.54;;;6.68;;
69837;SDS011;57135;51.992;4.476;2022-12-29T15:33:36;11.59;;;7.33;;
69837;SDS011;57135;51.992;4.476;2022-12-29T15:36:09;11.12;;;7.17;;
69837;SDS011;57135;51.992;4.476;2022-12-29T15:38:38;10.42;;;6.68;;
69837;SDS011;57135;51.992;4.476;2022-12-29T15:44:29;11.43;;;7.87;;
69837;SDS011;57135;51.992;4.476;2022-12-29T15:49:52;8.15;;;5.78;;
69837;SDS011;57135;51.992;4.476;2022-12-29T15:52:27;8.32;;;6.11;;
69837;SDS011;57135;51.992;4.476;2022-12-29T15:54:53;6.82;;;4.87;;
69837;SDS011;57135;51.992;4.476;2022-12-29T15:57:24;7.95;;;5.37;;
69837;SDS011;57135;51.992;4.476;2022-12-29T15:59:55;7.69;;;5.22;;
69837;SDS011;57135;51.992;4.476;2022-12-29T16:02:21;8.20;;;5.55;;
69837;SDS011;57135;51.992;4.476;2022-12-29T16:04:49;7.96;;;5.32;;
69837;SDS011;57135;51.992;4.476;2022-12-29T16:07:29;7.36;;;4.84;;
69837;SDS011;57135;51.992;4.476;2022-12-29T16:09:57;8.46;;;5.58;;
69837;SDS011;57135;51.992;4.476;2022-12-29T16:12:32;8.97;;;5.90;;
69837;SDS011;57135;51.992;4.476;2022-12-29T16:15:05;9.15;;;5.97;;
69837;SDS011;57135;51.992;4.476;2022-12-29T16:17:38;7.30;;;4.78;;
69837;SDS011;57135;51.992;4.476;2022-12-29T16:20:17;8.49;;;5.50;;
69837;SDS011;57135;51.992;4.476;2022-12-29T16:22:56;8.72;;;5.60;;
69837;SDS011;57135;51.992;4.476;2022-12-29T16:27:51;9.71;;;6.33;;
69837;SDS011;57135;51.992;4.476;2022-12-29T16:30:27;11.10;;;7.16;;
69837;SDS011;57135;51.992;4.476;2022-12-29T16:33:00;8.84;;;5.68;;
69837;SDS011;57135;51.992;4.476;2022-12-29T16:35:29;9.75;;;6.30;;
69837;SDS011;57135;51.992;4.476;2022-12-29T16:38:12;9.69;;;6.42;;
69837;SDS011;57135;51.992;4.476;2022-12-29T16:40:59;8.72;;;5.76;;
69837;SDS011;57135;51.992;4.476;2022-12-29T16:51:00;8.59;;;5.76;;
69837;SDS011;57135;51.992;4.476;2022-12-29T16:53:28;9.56;;;6.35;;
69837;SDS011;57135;51.992;4.476;2022-12-29T16:56:26;9.76;;;6.86;;
69837;SDS011;57135;51.992;4.476;2022-12-29T16:59:00;8.49;;;5.93;;
69837;SDS011;57135;51.992;4.476;2022-12-29T17:01:27;7.94;;;5.49;;
69837;SDS011;57135;51.992;4.476;2022-12-29T17:03:53;7.12;;;4.94;;
69837;SDS011;57135;51.992;4.476;2022-12-29T17:06:23;7.17;;;4.99;;
69837;SDS011;57135;51.992;4.476;2022-12-29T17:08:49;7.67;;;5.33;;
69837;SDS011;57135;51.992;4.476;2022-12-29T17:14:30;7.86;;;5.30;;
69837;SDS011;57135;51.992;4.476;2022-12-29T17:17:17;8.41;;;5.53;;
69837;SDS011;57135;51.992;4.476;2022-12-29T17:19:52;9.09;;;5.93;;
69837;SDS011;57135;51.992;4.476;2022-12-29T17:22:24;7.87;;;5.15;;
69837;SDS011;57135;51.992;4.476;2022-12-29T17:24:52;7.94;;;5.30;;
69837;SDS011;57135;51.992;4.476;2022-12-29T17:27:27;7.83;;;5.26;;
69837;SDS011;57135;51.992;4.476;2022-12-29T17:30:14;8.17;;;5.54;;
69837;SDS011;57135;51.992;4.476;2022-12-29T17:32:50;9.42;;;6.27;;
69837;SDS011;57135;51.992;4.476;2022-12-29T17:35:18;9.27;;;6.18;;
69837;SDS011;57135;51.992;4.476;2022-12-29T17:37:46;8.64;;;5.83;;
69837;SDS011;57135;51.992;4.476;2022-12-29T17:40:14;8.81;;;5.97;;
69837;SDS011;57135;51.992;4.476;2022-12-29T17:42:43;9.64;;;6.46;;
69837;SDS011;57135;51.992;4.476;2022-12-29T17:45:17;10.53;;;6.92;;
69837;SDS011;57135;51.992;4.476;2022-12-29T17:47:46;9.77;;;6.47;;
69837;SDS011;57135;51.992;4.476;2022-12-29T17:50:14;9.26;;;6.21;;
69837;SDS011;57135;51.992;4.476;2022-12-29T17:52:42;10.93;;;7.23;;
69837;SDS011;57135;51.992;4.476;2022-12-29T17:55:14;10.72;;;7.03;;
69837;SDS011;57135;51.992;4.476;2022-12-29T17:57:41;10.31;;;6.77;;
69837;SDS011;57135;51.992;4.476;2022-12-29T18:00:13;9.76;;;6.45;;
69837;SDS011;57135;51.992;4.476;2022-12-29T18:02:40;9.81;;;6.43;;